UAE719 YSSY-YMML
Flight info
| Callsign | UAE719 |
|---|---|
| Flight time | 1h 4m |
| Altitude | 38000 |
| Route | KEVIN7/16L KEVIN DCT WOL H65 LEECE Q29 BOOIN |
| Aircraft | B77W/H-SDE1E2E3FGHIJ2J3J4J5M1RWXY/LB1D1 |
Departure
| Time | 2026-04-24 07:26 |
|---|---|
| Airport | Sydney Kingsford Smith International Airport (YSSY) |
Arrival
| Time | 2026-04-24 08:31 |
|---|---|
| Airport | Melbourne Airport (YMML) |
| Time | Latitude | Longitude | Altitude | Speed | Heading |
|---|---|---|---|---|---|
| 2026-04-24 06:50 | -33.93857 | 151.16983 | 26 ft | 0 kts | 253° |
| 2026-04-24 07:04 | -33.93856 | 151.16988 | 26 ft | 3 kts | 253° |
| 2026-04-24 07:04 | -33.93849 | 151.17018 | 31 ft | 4 kts | 251° |
| 2026-04-24 07:04 | -33.93838 | 151.17043 | 31 ft | 4 kts | 222° |
| 2026-04-24 07:04 | -33.93821 | 151.17056 | 31 ft | 4 kts | 188° |
| 2026-04-24 07:05 | -33.93796 | 151.17056 | 30 ft | 3 kts | 170° |
| 2026-04-24 07:05 | -33.93773 | 151.17051 | 28 ft | 4 kts | 170° |
| 2026-04-24 07:05 | -33.93757 | 151.17048 | 31 ft | 0 kts | 170° |
| 2026-04-24 07:10 | -33.93760 | 151.17049 | 30 ft | 3 kts | 170° |
| 2026-04-24 07:10 | -33.93823 | 151.17063 | 28 ft | 15 kts | 168° |
| 2026-04-24 07:10 | -33.93935 | 151.17095 | 28 ft | 14 kts | 169° |
| 2026-04-24 07:10 | -33.93978 | 151.17144 | 28 ft | 6 kts | 107° |
| 2026-04-24 07:11 | -33.93976 | 151.17198 | 27 ft | 7 kts | 78° |
| 2026-04-24 07:11 | -33.93965 | 151.17252 | 27 ft | 0 kts | 76° |
| 2026-04-24 07:13 | -33.93954 | 151.17305 | 26 ft | 14 kts | 75° |
| 2026-04-24 07:14 | -33.93930 | 151.17412 | 24 ft | 13 kts | 74° |
| 2026-04-24 07:14 | -33.93906 | 151.17514 | 26 ft | 12 kts | 74° |
| 2026-04-24 07:14 | -33.93883 | 151.17608 | 28 ft | 12 kts | 74° |
| 2026-04-24 07:14 | -33.93860 | 151.17702 | 27 ft | 12 kts | 73° |
| 2026-04-24 07:15 | -33.93900 | 151.17775 | 30 ft | 12 kts | 154° |
| 2026-04-24 07:15 | -33.93910 | 151.17779 | 29 ft | 0 kts | 165° |
| 2026-04-24 07:16 | -33.93911 | 151.17780 | 29 ft | 4 kts | 165° |
| 2026-04-24 07:16 | -33.93962 | 151.17796 | 27 ft | 8 kts | 166° |
| 2026-04-24 07:17 | -33.94016 | 151.17812 | 28 ft | 8 kts | 166° |
| 2026-04-24 07:17 | -33.94073 | 151.17825 | 28 ft | 9 kts | 170° |
| 2026-04-24 07:17 | -33.94133 | 151.17840 | 29 ft | 9 kts | 168° |
| 2026-04-24 07:17 | -33.94193 | 151.17855 | 29 ft | 9 kts | 167° |
| 2026-04-24 07:18 | -33.94253 | 151.17872 | 29 ft | 9 kts | 167° |
| 2026-04-24 07:18 | -33.94315 | 151.17889 | 29 ft | 10 kts | 167° |
| 2026-04-24 07:18 | -33.94393 | 151.17909 | 29 ft | 12 kts | 168° |
| 2026-04-24 07:18 | -33.94475 | 151.17887 | 29 ft | 13 kts | 199° |
| 2026-04-24 07:19 | -33.94562 | 151.17893 | 29 ft | 13 kts | 168° |
| 2026-04-24 07:19 | -33.94649 | 151.17917 | 29 ft | 13 kts | 167° |
| 2026-04-24 07:19 | -33.94743 | 151.17941 | 28 ft | 14 kts | 168° |
| 2026-04-24 07:19 | -33.94846 | 151.17968 | 26 ft | 16 kts | 168° |
| 2026-04-24 07:20 | -33.94953 | 151.17995 | 28 ft | 16 kts | 167° |
| 2026-04-24 07:20 | -33.95036 | 151.18016 | 30 ft | 2 kts | 168° |
| 2026-04-24 07:21 | -33.95045 | 151.18019 | 30 ft | 5 kts | 168° |
| 2026-04-24 07:21 | -33.95098 | 151.18059 | 31 ft | 12 kts | 112° |
| 2026-04-24 07:21 | -33.95092 | 151.18159 | 29 ft | 12 kts | 79° |
| 2026-04-24 07:21 | -33.95075 | 151.18263 | 29 ft | 13 kts | 79° |
| 2026-04-24 07:22 | -33.95056 | 151.18369 | 30 ft | 13 kts | 77° |
| 2026-04-24 07:22 | -33.95036 | 151.18475 | 31 ft | 13 kts | 77° |
| 2026-04-24 07:22 | -33.95017 | 151.18581 | 31 ft | 13 kts | 77° |
| 2026-04-24 07:22 | -33.94999 | 151.18689 | 29 ft | 5 kts | 78° |
| 2026-04-24 07:25 | -33.94996 | 151.18702 | 29 ft | 6 kts | 78° |
| 2026-04-24 07:25 | -33.94982 | 151.18796 | 29 ft | 13 kts | 89° |
| 2026-04-24 07:25 | -33.95012 | 151.18843 | 29 ft | 6 kts | 150° |
| 2026-04-24 07:26 | -33.95035 | 151.18851 | 28 ft | 0 kts | 166° |
| 2026-04-24 07:26 | -33.95209 | 151.18901 | 30 ft | 79 kts | 167° |
| 2026-04-24 07:26 | -33.96133 | 151.19134 | 88 ft | 186 kts | 166° |
| 2026-04-24 07:26 | -33.97534 | 151.19474 | 1164 ft | 215 kts | 166° |
| 2026-04-24 07:27 | -33.98963 | 151.19819 | 3176 ft | 209 kts | 166° |
| 2026-04-24 07:27 | -34.00454 | 151.20196 | 4626 ft | 236 kts | 166° |
| 2026-04-24 07:27 | -34.02280 | 151.20675 | 4901 ft | 290 kts | 166° |
| 2026-04-24 07:27 | -34.04115 | 151.21481 | 4722 ft | 276 kts | 142° |
| 2026-04-24 07:28 | -34.05240 | 151.23201 | 4888 ft | 257 kts | 114° |
| 2026-04-24 07:28 | -34.06079 | 151.25145 | 4973 ft | 267 kts | 127° |
| 2026-04-24 07:28 | -34.07587 | 151.26458 | 5421 ft | 276 kts | 159° |
| 2026-04-24 07:28 | -34.09479 | 151.26756 | 6580 ft | 276 kts | 184° |
| 2026-04-24 07:29 | -34.11343 | 151.26111 | 7523 ft | 284 kts | 209° |
| 2026-04-24 07:29 | -34.12919 | 151.24672 | 8402 ft | 287 kts | 219° |
| 2026-04-24 07:29 | -34.14436 | 151.23073 | 9334 ft | 291 kts | 220° |
| 2026-04-24 07:29 | -34.15955 | 151.21439 | 10325 ft | 294 kts | 220° |
| 2026-04-24 07:30 | -34.17525 | 151.19748 | 10890 ft | 314 kts | 220° |
| 2026-04-24 07:30 | -34.19236 | 151.17917 | 11119 ft | 344 kts | 220° |
| 2026-04-24 07:30 | -34.21103 | 151.15926 | 11366 ft | 371 kts | 220° |
| 2026-04-24 07:30 | -34.23075 | 151.13829 | 12085 ft | 383 kts | 220° |
| 2026-04-24 07:31 | -34.25093 | 151.11688 | 12959 ft | 390 kts | 220° |
| 2026-04-24 07:31 | -34.27117 | 151.09542 | 13948 ft | 394 kts | 220° |
| 2026-04-24 07:31 | -34.29189 | 151.07350 | 14862 ft | 399 kts | 220° |
| 2026-04-24 07:31 | -34.31291 | 151.05126 | 15738 ft | 404 kts | 220° |
| 2026-04-24 07:32 | -34.33447 | 151.02845 | 16622 ft | 409 kts | 220° |
| 2026-04-24 07:32 | -34.35570 | 151.00597 | 17470 ft | 414 kts | 220° |
| 2026-04-24 07:32 | -34.37749 | 150.98290 | 18322 ft | 419 kts | 220° |
| 2026-04-24 07:32 | -34.39957 | 150.95949 | 19128 ft | 424 kts | 220° |
| 2026-04-24 07:33 | -34.41461 | 150.94354 | 19650 ft | 426 kts | 220° |
| 2026-04-24 07:33 | -34.44426 | 150.91203 | 20722 ft | 430 kts | 220° |
| 2026-04-24 07:33 | -34.46666 | 150.88785 | 21519 ft | 433 kts | 220° |
| 2026-04-24 07:33 | -34.48893 | 150.86390 | 22250 ft | 437 kts | 220° |
| 2026-04-24 07:34 | -34.51190 | 150.83955 | 22985 ft | 441 kts | 220° |
| 2026-04-24 07:34 | -34.52755 | 150.82305 | 23471 ft | 443 kts | 220° |
| 2026-04-24 07:34 | -34.55053 | 150.79783 | 24153 ft | 448 kts | 223° |
| 2026-04-24 07:34 | -34.57164 | 150.76981 | 24733 ft | 453 kts | 230° |
| 2026-04-24 07:35 | -34.59056 | 150.73909 | 25291 ft | 456 kts | 232° |
| 2026-04-24 07:35 | -34.60923 | 150.70768 | 25850 ft | 460 kts | 232° |
| 2026-04-24 07:35 | -34.63408 | 150.66565 | 26557 ft | 465 kts | 232° |
| 2026-04-24 07:35 | -34.64688 | 150.64406 | 26922 ft | 468 kts | 232° |
| 2026-04-24 07:36 | -34.66601 | 150.61193 | 27447 ft | 471 kts | 232° |
| 2026-04-24 07:36 | -34.68535 | 150.57959 | 27955 ft | 474 kts | 231° |
| 2026-04-24 07:36 | -34.70485 | 150.54702 | 28421 ft | 478 kts | 231° |
| 2026-04-24 07:36 | -34.72431 | 150.51457 | 28473 ft | 484 kts | 231° |
| 2026-04-24 07:37 | -34.76381 | 150.44860 | 28621 ft | 483 kts | 231° |
| 2026-04-24 07:37 | -34.78364 | 150.41544 | 29127 ft | 485 kts | 231° |
| 2026-04-24 07:37 | -34.80353 | 150.38216 | 29647 ft | 487 kts | 231° |
| 2026-04-24 07:38 | -34.82348 | 150.34873 | 30102 ft | 489 kts | 230° |
| 2026-04-24 07:38 | -34.84344 | 150.31525 | 30580 ft | 490 kts | 230° |
| 2026-04-24 07:38 | -34.86340 | 150.28171 | 31115 ft | 487 kts | 230° |
| 2026-04-24 07:38 | -34.88322 | 150.24839 | 31679 ft | 484 kts | 230° |
| 2026-04-24 07:39 | -34.90286 | 150.21531 | 32239 ft | 481 kts | 230° |
| 2026-04-24 07:39 | -34.92238 | 150.18241 | 32747 ft | 479 kts | 230° |
| 2026-04-24 07:39 | -34.94186 | 150.14959 | 33264 ft | 476 kts | 230° |
| 2026-04-24 07:39 | -34.96124 | 150.11691 | 33754 ft | 474 kts | 230° |
| 2026-04-24 07:40 | -34.98023 | 150.08486 | 34255 ft | 472 kts | 230° |
| 2026-04-24 07:40 | -34.99940 | 150.05246 | 34718 ft | 470 kts | 230° |
| 2026-04-24 07:40 | -35.01849 | 150.02017 | 35106 ft | 468 kts | 230° |
| 2026-04-24 07:40 | -35.03747 | 149.98804 | 35492 ft | 466 kts | 230° |
| 2026-04-24 07:41 | -35.05636 | 149.95603 | 35884 ft | 464 kts | 230° |
| 2026-04-24 07:41 | -35.07523 | 149.92406 | 36249 ft | 463 kts | 230° |
| 2026-04-24 07:41 | -35.09401 | 149.89225 | 36601 ft | 461 kts | 230° |
| 2026-04-24 07:41 | -35.11274 | 149.86049 | 36963 ft | 460 kts | 230° |
| 2026-04-24 07:42 | -35.13136 | 149.82889 | 37307 ft | 458 kts | 230° |
| 2026-04-24 07:42 | -35.14995 | 149.79732 | 37640 ft | 457 kts | 230° |
| 2026-04-24 07:42 | -35.16845 | 149.76588 | 37958 ft | 456 kts | 230° |
| 2026-04-24 07:42 | -35.18695 | 149.73438 | 38329 ft | 453 kts | 230° |
| 2026-04-24 07:43 | -35.20528 | 149.70314 | 38486 ft | 453 kts | 230° |
| 2026-04-24 07:43 | -35.22363 | 149.67186 | 38476 ft | 451 kts | 230° |
| 2026-04-24 07:43 | -35.26003 | 149.60970 | 38460 ft | 446 kts | 230° |
| 2026-04-24 07:44 | -35.29589 | 149.54838 | 38466 ft | 446 kts | 230° |
| 2026-04-24 07:44 | -35.33189 | 149.48671 | 38476 ft | 445 kts | 230° |
| 2026-04-24 07:45 | -35.36786 | 149.42499 | 38481 ft | 445 kts | 230° |
| 2026-04-24 07:45 | -35.40387 | 149.36309 | 38478 ft | 446 kts | 231° |
| 2026-04-24 07:46 | -35.43990 | 149.30102 | 38480 ft | 447 kts | 231° |
| 2026-04-24 07:46 | -35.47595 | 149.23880 | 38482 ft | 448 kts | 231° |
| 2026-04-24 07:47 | -35.51206 | 149.17637 | 38476 ft | 449 kts | 231° |
| 2026-04-24 07:47 | -35.54819 | 149.11380 | 38480 ft | 449 kts | 231° |
| 2026-04-24 07:48 | -35.58435 | 149.05106 | 38472 ft | 450 kts | 231° |
| 2026-04-24 07:48 | -35.62047 | 148.98828 | 38472 ft | 450 kts | 232° |
| 2026-04-24 07:49 | -35.65654 | 148.92548 | 38481 ft | 450 kts | 232° |
| 2026-04-24 07:49 | -35.69264 | 148.86251 | 38465 ft | 450 kts | 232° |
| 2026-04-24 07:50 | -35.72866 | 148.79956 | 38474 ft | 450 kts | 232° |
| 2026-04-24 07:50 | -35.76462 | 148.73659 | 38473 ft | 450 kts | 232° |
| 2026-04-24 07:51 | -35.80059 | 148.67350 | 38472 ft | 450 kts | 232° |
| 2026-04-24 07:51 | -35.83650 | 148.61038 | 38469 ft | 450 kts | 232° |
| 2026-04-24 07:52 | -35.87216 | 148.54762 | 38465 ft | 450 kts | 233° |
| 2026-04-24 07:52 | -35.90795 | 148.48434 | 38467 ft | 450 kts | 233° |
| 2026-04-24 07:53 | -35.94365 | 148.42081 | 38466 ft | 451 kts | 233° |
| 2026-04-24 07:53 | -35.97934 | 148.35720 | 38467 ft | 451 kts | 233° |
| 2026-04-24 07:54 | -36.01508 | 148.29339 | 38452 ft | 452 kts | 233° |
| 2026-04-24 07:54 | -36.05078 | 148.22954 | 38455 ft | 452 kts | 233° |
| 2026-04-24 07:55 | -36.08643 | 148.16569 | 38454 ft | 451 kts | 234° |
| 2026-04-24 07:55 | -36.12206 | 148.10176 | 38454 ft | 451 kts | 234° |
| 2026-04-24 07:56 | -36.15770 | 148.03796 | 38448 ft | 451 kts | 234° |
| 2026-04-24 07:56 | -36.19335 | 147.97411 | 38450 ft | 451 kts | 234° |
| 2026-04-24 07:57 | -36.22898 | 147.91014 | 38441 ft | 451 kts | 234° |
| 2026-04-24 07:57 | -36.26453 | 147.84616 | 38453 ft | 451 kts | 234° |
| 2026-04-24 07:58 | -36.29983 | 147.78252 | 38447 ft | 451 kts | 234° |
| 2026-04-24 07:58 | -36.33534 | 147.71839 | 38458 ft | 451 kts | 234° |
| 2026-04-24 07:59 | -36.37083 | 147.65409 | 38446 ft | 452 kts | 234° |
| 2026-04-24 07:59 | -36.40623 | 147.58975 | 38457 ft | 452 kts | 234° |
| 2026-04-24 08:00 | -36.44166 | 147.52526 | 38452 ft | 452 kts | 235° |
| 2026-04-24 08:00 | -36.47705 | 147.46073 | 38452 ft | 452 kts | 235° |
| 2026-04-24 08:01 | -36.51243 | 147.39608 | 38454 ft | 452 kts | 235° |
| 2026-04-24 08:01 | -36.54779 | 147.33135 | 38455 ft | 453 kts | 235° |
| 2026-04-24 08:02 | -36.58313 | 147.26653 | 38454 ft | 453 kts | 235° |
| 2026-04-24 08:02 | -36.61843 | 147.20164 | 38452 ft | 453 kts | 235° |
| 2026-04-24 08:03 | -36.65377 | 147.13658 | 38456 ft | 453 kts | 235° |
| 2026-04-24 08:03 | -36.68904 | 147.07153 | 38460 ft | 453 kts | 235° |
| 2026-04-24 08:04 | -36.72428 | 147.00645 | 38454 ft | 453 kts | 235° |
| 2026-04-24 08:04 | -36.75955 | 146.94131 | 38457 ft | 453 kts | 236° |
| 2026-04-24 08:05 | -36.79477 | 146.87611 | 38453 ft | 453 kts | 236° |
| 2026-04-24 08:05 | -36.82973 | 146.81125 | 38447 ft | 453 kts | 236° |
| 2026-04-24 08:06 | -36.84739 | 146.77845 | 37980 ft | 459 kts | 236° |
| 2026-04-24 08:06 | -36.86506 | 146.74560 | 37729 ft | 452 kts | 236° |
| 2026-04-24 08:06 | -36.88250 | 146.71314 | 37203 ft | 448 kts | 236° |
| 2026-04-24 08:06 | -36.89978 | 146.68093 | 36749 ft | 444 kts | 236° |
| 2026-04-24 08:07 | -36.91689 | 146.64901 | 36292 ft | 440 kts | 236° |
| 2026-04-24 08:07 | -36.93383 | 146.61739 | 35845 ft | 436 kts | 236° |
| 2026-04-24 08:07 | -36.95062 | 146.58602 | 35411 ft | 432 kts | 236° |
| 2026-04-24 08:07 | -36.96726 | 146.55489 | 34880 ft | 431 kts | 236° |
| 2026-04-24 08:08 | -36.98391 | 146.52372 | 34309 ft | 431 kts | 236° |
| 2026-04-24 08:08 | -37.00075 | 146.49217 | 33658 ft | 430 kts | 236° |
| 2026-04-24 08:08 | -37.01689 | 146.46189 | 33000 ft | 416 kts | 236° |
| 2026-04-24 08:09 | -37.04780 | 146.40384 | 31730 ft | 387 kts | 236° |
| 2026-04-24 08:09 | -37.06249 | 146.37623 | 31127 ft | 376 kts | 236° |
| 2026-04-24 08:09 | -37.07694 | 146.34905 | 30545 ft | 374 kts | 236° |
| 2026-04-24 08:09 | -37.09137 | 146.32184 | 29916 ft | 376 kts | 236° |
| 2026-04-24 08:10 | -37.10586 | 146.29447 | 29272 ft | 377 kts | 236° |
| 2026-04-24 08:10 | -37.12033 | 146.26712 | 28631 ft | 376 kts | 237° |
| 2026-04-24 08:10 | -37.13469 | 146.23993 | 28007 ft | 373 kts | 237° |
| 2026-04-24 08:10 | -37.14894 | 146.21294 | 27407 ft | 370 kts | 237° |
| 2026-04-24 08:11 | -37.16308 | 146.18614 | 26803 ft | 367 kts | 237° |
| 2026-04-24 08:11 | -37.17712 | 146.15951 | 26215 ft | 365 kts | 237° |
| 2026-04-24 08:11 | -37.19105 | 146.13307 | 25642 ft | 362 kts | 237° |
| 2026-04-24 08:11 | -37.20490 | 146.10675 | 25081 ft | 360 kts | 237° |
| 2026-04-24 08:12 | -37.21864 | 146.08064 | 24520 ft | 358 kts | 237° |
| 2026-04-24 08:12 | -37.23228 | 146.05468 | 23974 ft | 355 kts | 237° |
| 2026-04-24 08:12 | -37.24582 | 146.02889 | 23339 ft | 353 kts | 237° |
| 2026-04-24 08:12 | -37.25928 | 146.00323 | 22702 ft | 350 kts | 237° |
| 2026-04-24 08:13 | -37.27261 | 145.97781 | 22088 ft | 348 kts | 237° |
| 2026-04-24 08:13 | -37.28580 | 145.95264 | 21642 ft | 340 kts | 237° |
| 2026-04-24 08:13 | -37.29884 | 145.92773 | 21493 ft | 341 kts | 237° |
| 2026-04-24 08:13 | -37.31185 | 145.90291 | 21448 ft | 339 kts | 237° |
| 2026-04-24 08:14 | -37.32492 | 145.87810 | 21212 ft | 343 kts | 237° |
| 2026-04-24 08:14 | -37.33819 | 145.85292 | 20591 ft | 346 kts | 237° |
| 2026-04-24 08:14 | -37.35137 | 145.82791 | 19982 ft | 340 kts | 237° |
| 2026-04-24 08:14 | -37.36429 | 145.80338 | 19405 ft | 333 kts | 237° |
| 2026-04-24 08:15 | -37.37696 | 145.77928 | 18808 ft | 328 kts | 237° |
| 2026-04-24 08:15 | -37.38755 | 145.75424 | 18139 ft | 323 kts | 246° |
| 2026-04-24 08:15 | -37.39912 | 145.73021 | 17494 ft | 321 kts | 234° |
| 2026-04-24 08:15 | -37.41260 | 145.70794 | 16877 ft | 319 kts | 234° |
| 2026-04-24 08:16 | -37.42558 | 145.68538 | 16261 ft | 317 kts | 236° |
| 2026-04-24 08:16 | -37.43780 | 145.66287 | 15658 ft | 315 kts | 238° |
| 2026-04-24 08:16 | -37.44713 | 145.63809 | 15040 ft | 312 kts | 254° |
| 2026-04-24 08:16 | -37.45129 | 145.61475 | 12453 ft | 0 kts | 264° |
| 2026-04-24 08:17 | -37.45191 | 145.59378 | 9274 ft | 293 kts | 273° |
| 2026-04-24 08:17 | -37.45124 | 145.56944 | 9262 ft | 266 kts | 274° |
| 2026-04-24 08:17 | -37.45045 | 145.54607 | 9317 ft | 274 kts | 274° |
| 2026-04-24 08:17 | -37.44980 | 145.52162 | 9283 ft | 283 kts | 273° |
| 2026-04-24 08:18 | -37.44933 | 145.49689 | 9136 ft | 282 kts | 273° |
| 2026-04-24 08:18 | -37.44897 | 145.47233 | 9077 ft | 280 kts | 273° |
| 2026-04-24 08:18 | -37.44863 | 145.44787 | 9034 ft | 280 kts | 272° |
| 2026-04-24 08:18 | -37.45059 | 145.42359 | 9014 ft | 283 kts | 251° |
| 2026-04-24 08:19 | -37.46094 | 145.40252 | 9028 ft | 288 kts | 227° |
| 2026-04-24 08:19 | -37.47586 | 145.38546 | 9028 ft | 291 kts | 223° |
| 2026-04-24 08:19 | -37.49119 | 145.36866 | 9030 ft | 293 kts | 223° |
| 2026-04-24 08:19 | -37.50660 | 145.35179 | 9027 ft | 294 kts | 223° |
| 2026-04-24 08:20 | -37.52277 | 145.33613 | 8999 ft | 295 kts | 207° |
| 2026-04-24 08:20 | -37.54269 | 145.33112 | 9009 ft | 296 kts | 174° |
| 2026-04-24 08:20 | -37.56186 | 145.33997 | 8973 ft | 299 kts | 143° |
| 2026-04-24 08:20 | -37.57518 | 145.35990 | 8647 ft | 300 kts | 111° |
| 2026-04-24 08:21 | -37.57930 | 145.38516 | 8280 ft | 294 kts | 94° |
| 2026-04-24 08:21 | -37.58481 | 145.41032 | 7951 ft | 303 kts | 118° |
| 2026-04-24 08:21 | -37.59846 | 145.43054 | 7586 ft | 305 kts | 144° |
| 2026-04-24 08:21 | -37.61750 | 145.44159 | 7229 ft | 302 kts | 170° |
| 2026-04-24 08:22 | -37.63800 | 145.44158 | 6854 ft | 287 kts | 196° |
| 2026-04-24 08:22 | -37.65518 | 145.43102 | 6436 ft | 269 kts | 224° |
| 2026-04-24 08:22 | -37.66340 | 145.41951 | 6216 ft | 268 kts | 236° |
| 2026-04-24 08:22 | -37.67356 | 145.39975 | 6082 ft | 267 kts | 241° |
| 2026-04-24 08:23 | -37.68607 | 145.37253 | 5944 ft | 269 kts | 248° |
| 2026-04-24 08:23 | -37.69060 | 145.35007 | 5695 ft | 269 kts | 265° |
| 2026-04-24 08:23 | -37.69189 | 145.32654 | 5473 ft | 269 kts | 269° |
| 2026-04-24 08:23 | -37.69263 | 145.30300 | 5221 ft | 267 kts | 269° |
| 2026-04-24 08:24 | -37.69333 | 145.27990 | 5076 ft | 258 kts | 270° |
| 2026-04-24 08:24 | -37.69377 | 145.26476 | 5031 ft | 254 kts | 270° |
| 2026-04-24 08:24 | -37.69465 | 145.23599 | 4902 ft | 241 kts | 270° |
| 2026-04-24 08:24 | -37.69512 | 145.22203 | 4888 ft | 230 kts | 270° |
| 2026-04-24 08:25 | -37.69608 | 145.19670 | 4825 ft | 210 kts | 270° |
| 2026-04-24 08:25 | -37.69660 | 145.18430 | 4757 ft | 208 kts | 270° |
| 2026-04-24 08:25 | -37.69737 | 145.16634 | 4657 ft | 208 kts | 270° |
| 2026-04-24 08:25 | -37.69606 | 145.14254 | 4358 ft | 212 kts | 281° |
| 2026-04-24 08:26 | -37.69467 | 145.13035 | 4204 ft | 212 kts | 282° |
| 2026-04-24 08:26 | -37.69186 | 145.10597 | 3856 ft | 207 kts | 282° |
| 2026-04-24 08:26 | -37.69056 | 145.09417 | 3684 ft | 202 kts | 282° |
| 2026-04-24 08:26 | -37.68878 | 145.07680 | 3409 ft | 196 kts | 282° |
| 2026-04-24 08:27 | -37.68717 | 145.06000 | 3153 ft | 191 kts | 282° |
| 2026-04-24 08:27 | -37.68570 | 145.04358 | 2884 ft | 186 kts | 282° |
| 2026-04-24 08:27 | -37.68389 | 145.02797 | 2638 ft | 171 kts | 287° |
| 2026-04-24 08:27 | -37.68128 | 145.01408 | 2408 ft | 151 kts | 291° |
| 2026-04-24 08:28 | -37.67883 | 145.00184 | 2409 ft | 143 kts | 291° |
| 2026-04-24 08:28 | -37.67614 | 144.98965 | 2527 ft | 145 kts | 296° |
| 2026-04-24 08:28 | -37.67245 | 144.97777 | 2474 ft | 148 kts | 297° |
| 2026-04-24 08:28 | -37.66904 | 144.96540 | 2149 ft | 151 kts | 288° |
| 2026-04-24 08:29 | -37.66809 | 144.95216 | 1727 ft | 146 kts | 276° |
| 2026-04-24 08:29 | -37.66828 | 144.93938 | 1600 ft | 148 kts | 277° |
| 2026-04-24 08:29 | -37.66745 | 144.92633 | 1577 ft | 150 kts | 281° |
| 2026-04-24 08:29 | -37.66635 | 144.91338 | 1525 ft | 149 kts | 283° |
| 2026-04-24 08:30 | -37.66537 | 144.90027 | 1346 ft | 152 kts | 277° |
| 2026-04-24 08:30 | -37.66466 | 144.88685 | 1089 ft | 157 kts | 278° |
| 2026-04-24 08:30 | -37.66374 | 144.87335 | 754 ft | 148 kts | 277° |
| 2026-04-24 08:30 | -37.66305 | 144.86029 | 706 ft | 150 kts | 274° |
| 2026-04-24 08:31 | -37.66224 | 144.84687 | 482 ft | 155 kts | 276° |
| 2026-04-24 08:31 | -37.66146 | 144.83443 | 415 ft | 118 kts | 275° |
| 2026-04-24 08:31 | -37.66124 | 144.83108 | 413 ft | 13 kts | 272° |
| 2026-04-24 08:31 | -37.66179 | 144.82901 | 410 ft | 27 kts | 246° |
| 2026-04-24 08:32 | -37.66220 | 144.82797 | 403 ft | 2 kts | 242° |
| 2026-04-24 08:32 | -37.66222 | 144.82792 | 402 ft | 4 kts | 242° |
| 2026-04-24 08:32 | -37.66288 | 144.82699 | 395 ft | 19 kts | 207° |
| 2026-04-24 08:32 | -37.66408 | 144.82715 | 392 ft | 17 kts | 140° |
| 2026-04-24 08:33 | -37.66447 | 144.82838 | 390 ft | 14 kts | 97° |
| 2026-04-24 08:33 | -37.66454 | 144.82946 | 393 ft | 12 kts | 95° |
| 2026-04-24 08:33 | -37.66462 | 144.83053 | 394 ft | 12 kts | 95° |
| 2026-04-24 08:33 | -37.66468 | 144.83161 | 402 ft | 12 kts | 94° |
| 2026-04-24 08:34 | -37.66475 | 144.83268 | 401 ft | 12 kts | 94° |
| 2026-04-24 08:34 | -37.66480 | 144.83376 | 407 ft | 12 kts | 95° |
| 2026-04-24 08:34 | -37.66487 | 144.83484 | 409 ft | 12 kts | 94° |
| 2026-04-24 08:34 | -37.66493 | 144.83591 | 409 ft | 12 kts | 94° |
| 2026-04-24 08:35 | -37.66499 | 144.83699 | 410 ft | 12 kts | 94° |
| 2026-04-24 08:35 | -37.66505 | 144.83810 | 409 ft | 13 kts | 94° |
| 2026-04-24 08:35 | -37.66513 | 144.83924 | 409 ft | 13 kts | 96° |
| 2026-04-24 08:35 | -37.66520 | 144.84032 | 409 ft | 7 kts | 92° |
| 2026-04-24 08:36 | -37.66522 | 144.84070 | 408 ft | 0 kts | 95° |
| 2026-04-24 08:36 | -37.66522 | 144.84076 | 408 ft | 1 kts | 95° |
| 2026-04-24 08:36 | -37.66524 | 144.84090 | 408 ft | 4 kts | 96° |
| 2026-04-24 08:36 | -37.66571 | 144.84152 | 406 ft | 14 kts | 165° |
| 2026-04-24 08:37 | -37.66674 | 144.84175 | 398 ft | 13 kts | 158° |
| 2026-04-24 08:37 | -37.66695 | 144.84209 | 398 ft | 0 kts | 88° |
| 2026-04-24 08:37 | -37.66689 | 144.84302 | 398 ft | 18 kts | 82° |
| 2026-04-24 08:37 | -37.66674 | 144.84438 | 403 ft | 10 kts | 82° |
| 2026-04-24 08:38 | -37.66674 | 144.84520 | 403 ft | 7 kts | 120° |
| 2026-04-24 08:38 | -37.66720 | 144.84536 | 401 ft | 8 kts | 172° |
| 2026-04-24 08:38 | -37.66740 | 144.84540 | 400 ft | 2 kts | 171° |
| 2026-04-24 08:38 | -37.66742 | 144.84541 | 400 ft | 0 kts | 171° |